sensor_id;sensor_type;location;lat;lon;timestamp;pressure;altitude;pressure_sealevel;temperature;humidity
24154;BME280;12312;53.362;-1.518;2023-05-01T00:00:47;99220.75;;;12.39;100.00
24154;BME280;12312;53.362;-1.518;2023-05-01T00:03:32;99228.47;;;12.65;100.00
24154;BME280;12312;53.362;-1.518;2023-05-01T00:06:16;99219.66;;;13.07;100.00
24154;BME280;12312;53.362;-1.518;2023-05-01T00:09:00;99224.44;;;13.24;100.00
24154;BME280;12312;53.362;-1.518;2023-05-01T00:11:44;99213.22;;;13.09;100.00
24154;BME280;12312;53.362;-1.518;2023-05-01T00:14:29;99205.59;;;13.05;100.00
24154;BME280;12312;53.362;-1.518;2023-05-01T00:17:13;99211.00;;;12.49;100.00
24154;BME280;12312;53.362;-1.518;2023-05-01T00:19:57;99206.47;;;12.83;100.00
24154;BME280;12312;53.362;-1.518;2023-05-01T00:22:41;99208.28;;;12.72;100.00
24154;BME280;12312;53.362;-1.518;2023-05-01T00:25:25;99211.84;;;12.61;100.00
24154;BME280;12312;53.362;-1.518;2023-05-01T00:28:10;99202.03;;;12.50;100.00
24154;BME280;12312;53.362;-1.518;2023-05-01T00:30:54;99198.41;;;12.40;100.00
24154;BME280;12312;53.362;-1.518;2023-05-01T00:33:38;99190.03;;;12.34;100.00
24154;BME280;12312;53.362;-1.518;2023-05-01T00:36:24;99189.91;;;12.46;100.00
24154;BME280;12312;53.362;-1.518;2023-05-01T00:39:08;99186.03;;;12.39;100.00
24154;BME280;12312;53.362;-1.518;2023-05-01T00:41:52;99176.69;;;12.34;100.00
24154;BME280;12312;53.362;-1.518;2023-05-01T00:44:37;99177.31;;;12.26;100.00
24154;BME280;12312;53.362;-1.518;2023-05-01T00:47:22;99175.13;;;12.42;100.00
24154;BME280;12312;53.362;-1.518;2023-05-01T00:50:07;99164.47;;;12.20;100.00
24154;BME280;12312;53.362;-1.518;2023-05-01T00:52:51;99177.69;;;12.00;100.00
24154;BME280;12312;53.362;-1.518;2023-05-01T00:55:36;99162.78;;;12.19;100.00
24154;BME280;12312;53.362;-1.518;2023-05-01T00:58:22;99164.56;;;12.08;100.00
24154;BME280;12312;53.362;-1.518;2023-05-01T01:01:07;99164.22;;;12.12;100.00
24154;BME280;12312;53.362;-1.518;2023-05-01T01:03:54;99157.91;;;12.02;100.00
24154;BME280;12312;53.362;-1.518;2023-05-01T01:13:07;99161.31;;;12.04;100.00
24154;BME280;12312;53.362;-1.518;2023-05-01T01:22:08;99152.44;;;12.26;100.00
24154;BME280;12312;53.362;-1.518;2023-05-01T01:34:25;99147.72;;;12.29;100.00
24154;BME280;12312;53.362;-1.518;2023-05-01T01:37:26;99140.44;;;12.31;100.00
24154;BME280;12312;53.362;-1.518;2023-05-01T01:40:16;99133.63;;;12.27;100.00
24154;BME280;12312;53.362;-1.518;2023-05-01T01:43:04;99124.56;;;12.19;100.00
24154;BME280;12312;53.362;-1.518;2023-05-01T01:46:02;99127.34;;;12.06;100.00
24154;BME280;12312;53.362;-1.518;2023-05-01T01:48:49;99116.84;;;11.83;100.00
24154;BME280;12312;53.362;-1.518;2023-05-01T01:51:37;99116.22;;;11.79;100.00
24154;BME280;12312;53.362;-1.518;2023-05-01T01:54:32;99122.28;;;11.81;100.00
24154;BME280;12312;53.362;-1.518;2023-05-01T01:57:20;99125.91;;;11.69;100.00
24154;BME280;12312;53.362;-1.518;2023-05-01T02:00:08;99119.50;;;11.72;100.00
24154;BME280;12312;53.362;-1.518;2023-05-01T02:02:54;99126.59;;;11.60;100.00
24154;BME280;12312;53.362;-1.518;2023-05-01T02:05:41;99108.94;;;11.70;100.00
24154;BME280;12312;53.362;-1.518;2023-05-01T02:08:28;99107.97;;;11.93;100.00
24154;BME280;12312;53.362;-1.518;2023-05-01T02:11:19;99104.34;;;11.72;100.00
24154;BME280;12312;53.362;-1.518;2023-05-01T02:14:08;99105.06;;;11.63;100.00
24154;BME280;12312;53.362;-1.518;2023-05-01T02:16:54;99096.09;;;11.75;100.00
24154;BME280;12312;53.362;-1.518;2023-05-01T02:19:40;99089.19;;;11.84;100.00
24154;BME280;12312;53.362;-1.518;2023-05-01T02:22:27;99098.97;;;11.61;100.00
24154;BME280;12312;53.362;-1.518;2023-05-01T02:25:12;99099.03;;;11.72;100.00
24154;BME280;12312;53.362;-1.518;2023-05-01T02:28:04;99096.94;;;11.76;100.00
24154;BME280;12312;53.362;-1.518;2023-05-01T02:30:55;99097.16;;;11.62;100.00
24154;BME280;12312;53.362;-1.518;2023-05-01T02:33:40;99087.72;;;11.47;100.00
24154;BME280;12312;53.362;-1.518;2023-05-01T02:36:24;99081.91;;;11.75;100.00
24154;BME280;12312;53.362;-1.518;2023-05-01T02:39:09;99089.03;;;11.52;100.00
24154;BME280;12312;53.362;-1.518;2023-05-01T02:41:53;99093.63;;;11.50;100.00
24154;BME280;12312;53.362;-1.518;2023-05-01T02:44:46;99094.88;;;11.57;100.00
24154;BME280;12312;53.362;-1.518;2023-05-01T02:47:34;99085.44;;;11.64;100.00
24154;BME280;12312;53.362;-1.518;2023-05-01T02:50:21;99095.09;;;11.54;100.00
24154;BME280;12312;53.362;-1.518;2023-05-01T02:53:06;99094.59;;;11.49;100.00
24154;BME280;12312;53.362;-1.518;2023-05-01T02:55:52;99088.59;;;11.69;100.00
24154;BME280;12312;53.362;-1.518;2023-05-01T02:58:37;99091.72;;;11.74;100.00
24154;BME280;12312;53.362;-1.518;2023-05-01T03:01:21;99094.22;;;11.43;100.00
24154;BME280;12312;53.362;-1.518;2023-05-01T03:04:07;99086.56;;;11.16;100.00
24154;BME280;12312;53.362;-1.518;2023-05-01T03:06:50;99088.09;;;11.64;100.00
24154;BME280;12312;53.362;-1.518;2023-05-01T03:09:34;99087.75;;;11.69;100.00
24154;BME280;12312;53.362;-1.518;2023-05-01T03:12:19;99087.88;;;11.78;100.00
24154;BME280;12312;53.362;-1.518;2023-05-01T03:15:04;99080.94;;;11.76;100.00
24154;BME280;12312;53.362;-1.518;2023-05-01T03:17:48;99077.78;;;11.60;100.00
24154;BME280;12312;53.362;-1.518;2023-05-01T03:20:32;99080.31;;;11.61;100.00
24154;BME280;12312;53.362;-1.518;2023-05-01T03:23:16;99082.91;;;11.74;100.00
24154;BME280;12312;53.362;-1.518;2023-05-01T03:26:00;99085.66;;;11.61;100.00
24154;BME280;12312;53.362;-1.518;2023-05-01T03:28:44;99093.88;;;11.47;100.00
24154;BME280;12312;53.362;-1.518;2023-05-01T03:31:29;99096.03;;;11.31;100.00
24154;BME280;12312;53.362;-1.518;2023-05-01T03:34:13;99092.66;;;11.40;100.00
24154;BME280;12312;53.362;-1.518;2023-05-01T03:36:57;99095.25;;;11.07;100.00
24154;BME280;12312;53.362;-1.518;2023-05-01T03:39:41;99085.88;;;11.25;100.00
24154;BME280;12312;53.362;-1.518;2023-05-01T03:42:25;99094.59;;;11.38;100.00
24154;BME280;12312;53.362;-1.518;2023-05-01T03:45:09;99089.25;;;11.38;100.00
24154;BME280;12312;53.362;-1.518;2023-05-01T03:47:54;99093.78;;;11.03;100.00
24154;BME280;12312;53.362;-1.518;2023-05-01T03:50:40;99091.63;;;11.08;100.00
24154;BME280;12312;53.362;-1.518;2023-05-01T03:53:24;99095.78;;;11.23;100.00
24154;BME280;12312;53.362;-1.518;2023-05-01T03:56:08;99096.00;;;11.20;100.00
24154;BME280;12312;53.362;-1.518;2023-05-01T03:58:52;99098.06;;;11.06;100.00
24154;BME280;12312;53.362;-1.518;2023-05-01T04:01:36;99097.81;;;11.09;100.00
24154;BME280;12312;53.362;-1.518;2023-05-01T04:04:22;99098.50;;;11.00;100.00
24154;BME280;12312;53.362;-1.518;2023-05-01T04:07:06;99100.03;;;10.91;100.00
24154;BME280;12312;53.362;-1.518;2023-05-01T04:09:50;99110.50;;;11.05;100.00
24154;BME280;12312;53.362;-1.518;2023-05-01T04:12:35;99106.38;;;11.01;100.00
24154;BME280;12312;53.362;-1.518;2023-05-01T04:15:18;99106.63;;;10.98;100.00
24154;BME280;12312;53.362;-1.518;2023-05-01T04:18:03;99092.13;;;11.13;100.00
24154;BME280;12312;53.362;-1.518;2023-05-01T04:28:40;99115.44;;;10.99;100.00
24154;BME280;12312;53.362;-1.518;2023-05-01T04:31:25;99107.84;;;11.05;100.00
24154;BME280;12312;53.362;-1.518;2023-05-01T04:34:09;99101.34;;;11.20;100.00
24154;BME280;12312;53.362;-1.518;2023-05-01T04:36:53;99108.22;;;11.12;100.00
24154;BME280;12312;53.362;-1.518;2023-05-01T04:39:37;99104.75;;;11.22;100.00
24154;BME280;12312;53.362;-1.518;2023-05-01T04:42:22;99115.94;;;11.04;100.00
24154;BME280;12312;53.362;-1.518;2023-05-01T04:45:06;99123.19;;;11.02;100.00
24154;BME280;12312;53.362;-1.518;2023-05-01T04:47:50;99120.41;;;10.92;100.00
24154;BME280;12312;53.362;-1.518;2023-05-01T04:50:34;99114.09;;;10.93;100.00
24154;BME280;12312;53.362;-1.518;2023-05-01T04:53:18;99111.84;;;11.11;100.00
24154;BME280;12312;53.362;-1.518;2023-05-01T04:56:02;99118.38;;;11.07;100.00
24154;BME280;12312;53.362;-1.518;2023-05-01T04:58:46;99110.91;;;11.23;100.00
24154;BME280;12312;53.362;-1.518;2023-05-01T05:01:30;99107.44;;;11.44;100.00
24154;BME280;12312;53.362;-1.518;2023-05-01T05:04:14;99111.91;;;11.33;100.00
24154;BME280;12312;53.362;-1.518;2023-05-01T05:06:59;99109.13;;;11.34;100.00
24154;BME280;12312;53.362;-1.518;2023-05-01T05:09:43;99123.28;;;11.24;100.00
24154;BME280;12312;53.362;-1.518;2023-05-01T05:12:27;99123.13;;;11.14;100.00
24154;BME280;12312;53.362;-1.518;2023-05-01T05:15:11;99112.66;;;11.00;100.00
24154;BME280;12312;53.362;-1.518;2023-05-01T05:17:54;99117.75;;;11.03;100.00
24154;BME280;12312;53.362;-1.518;2023-05-01T05:20:38;99124.06;;;11.02;100.00
24154;BME280;12312;53.362;-1.518;2023-05-01T05:23:22;99126.44;;;10.94;100.00
24154;BME280;12312;53.362;-1.518;2023-05-01T05:26:06;99124.22;;;11.12;100.00
24154;BME280;12312;53.362;-1.518;2023-05-01T05:28:50;99116.09;;;11.13;100.00
24154;BME280;12312;53.362;-1.518;2023-05-01T05:31:34;99118.34;;;11.30;100.00
24154;BME280;12312;53.362;-1.518;2023-05-01T05:34:18;99120.44;;;11.14;100.00
24154;BME280;12312;53.362;-1.518;2023-05-01T05:37:02;99126.53;;;11.16;100.00
24154;BME280;12312;53.362;-1.518;2023-05-01T05:39:46;99130.13;;;11.15;100.00
24154;BME280;12312;53.362;-1.518;2023-05-01T05:42:30;99124.06;;;11.02;100.00
24154;BME280;12312;53.362;-1.518;2023-05-01T05:45:14;99124.34;;;10.87;100.00
24154;BME280;12312;53.362;-1.518;2023-05-01T05:47:59;99128.69;;;11.11;100.00
24154;BME280;12312;53.362;-1.518;2023-05-01T05:50:43;99124.13;;;10.90;100.00
24154;BME280;12312;53.362;-1.518;2023-05-01T05:53:27;99130.69;;;10.97;100.00
24154;BME280;12312;53.362;-1.518;2023-05-01T05:56:11;99125.44;;;10.84;100.00
24154;BME280;12312;53.362;-1.518;2023-05-01T05:58:55;99123.81;;;11.05;100.00
24154;BME280;12312;53.362;-1.518;2023-05-01T06:01:39;99129.66;;;11.10;100.00
24154;BME280;12312;53.362;-1.518;2023-05-01T06:04:25;99123.19;;;11.02;100.00
24154;BME280;12312;53.362;-1.518;2023-05-01T06:07:09;99137.41;;;11.24;100.00
24154;BME280;12312;53.362;-1.518;2023-05-01T06:09:52;99122.25;;;11.14;100.00
24154;BME280;12312;53.362;-1.518;2023-05-01T06:12:37;99132.59;;;11.29;100.00
24154;BME280;12312;53.362;-1.518;2023-05-01T06:15:21;99130.09;;;11.39;100.00
24154;BME280;12312;53.362;-1.518;2023-05-01T06:18:07;99131.25;;;11.69;100.00
24154;BME280;12312;53.362;-1.518;2023-05-01T06:20:51;99133.38;;;11.42;100.00
24154;BME280;12312;53.362;-1.518;2023-05-01T06:23:35;99129.72;;;11.43;100.00
24154;BME280;12312;53.362;-1.518;2023-05-01T06:26:19;99137.47;;;11.46;100.00
24154;BME280;12312;53.362;-1.518;2023-05-01T06:29:04;99138.94;;;11.39;100.00
24154;BME280;12312;53.362;-1.518;2023-05-01T06:31:48;99136.84;;;11.43;100.00
24154;BME280;12312;53.362;-1.518;2023-05-01T06:34:32;99143.56;;;11.48;100.00
24154;BME280;12312;53.362;-1.518;2023-05-01T06:37:16;99137.06;;;11.18;100.00
24154;BME280;12312;53.362;-1.518;2023-05-01T06:40:01;99142.97;;;11.56;100.00
24154;BME280;12312;53.362;-1.518;2023-05-01T06:42:47;99151.28;;;11.40;100.00
24154;BME280;12312;53.362;-1.518;2023-05-01T06:45:31;99158.06;;;11.44;100.00
24154;BME280;12312;53.362;-1.518;2023-05-01T06:48:16;99158.09;;;11.55;100.00
24154;BME280;12312;53.362;-1.518;2023-05-01T06:51:00;99160.09;;;11.75;100.00
24154;BME280;12312;53.362;-1.518;2023-05-01T06:53:44;99171.88;;;11.49;100.00
24154;BME280;12312;53.362;-1.518;2023-05-01T06:56:28;99166.38;;;11.63;100.00
24154;BME280;12312;53.362;-1.518;2023-05-01T06:59:12;99168.81;;;11.66;100.00
24154;BME280;12312;53.362;-1.518;2023-05-01T07:01:56;99169.91;;;11.29;100.00
24154;BME280;12312;53.362;-1.518;2023-05-01T07:04:40;99170.22;;;11.48;100.00
24154;BME280;12312;53.362;-1.518;2023-05-01T07:07:27;99173.00;;;11.47;100.00
24154;BME280;12312;53.362;-1.518;2023-05-01T07:10:12;99170.94;;;11.61;100.00
24154;BME280;12312;53.362;-1.518;2023-05-01T07:12:56;99175.53;;;11.48;100.00
24154;BME280;12312;53.362;-1.518;2023-05-01T07:15:40;99181.16;;;11.67;100.00
24154;BME280;12312;53.362;-1.518;2023-05-01T07:18:24;99182.00;;;11.79;100.00
24154;BME280;12312;53.362;-1.518;2023-05-01T07:21:08;99184.56;;;11.91;100.00
24154;BME280;12312;53.362;-1.518;2023-05-01T07:23:54;99179.50;;;11.88;100.00
24154;BME280;12312;53.362;-1.518;2023-05-01T07:26:38;99178.91;;;11.85;100.00
24154;BME280;12312;53.362;-1.518;2023-05-01T07:29:22;99173.91;;;11.91;100.00
24154;BME280;12312;53.362;-1.518;2023-05-01T07:32:06;99180.97;;;11.92;100.00
24154;BME280;12312;53.362;-1.518;2023-05-01T07:34:51;99189.66;;;11.94;100.00
24154;BME280;12312;53.362;-1.518;2023-05-01T07:37:35;99190.66;;;12.04;100.00
24154;BME280;12312;53.362;-1.518;2023-05-01T07:40:19;99187.50;;;12.10;100.00
24154;BME280;12312;53.362;-1.518;2023-05-01T07:43:04;99197.19;;;12.00;100.00
24154;BME280;12312;53.362;-1.518;2023-05-01T07:45:58;99204.00;;;12.37;100.00
24154;BME280;12312;53.362;-1.518;2023-05-01T07:48:43;99216.22;;;12.40;100.00
24154;BME280;12312;53.362;-1.518;2023-05-01T07:51:27;99211.84;;;12.61;100.00
24154;BME280;12312;53.362;-1.518;2023-05-01T07:54:11;99205.91;;;12.46;100.00
24154;BME280;12312;53.362;-1.518;2023-05-01T07:56:57;99214.16;;;12.21;100.00
24154;BME280;12312;53.362;-1.518;2023-05-01T07:59:41;99214.66;;;12.26;100.00
24154;BME280;12312;53.362;-1.518;2023-05-01T08:02:25;99209.94;;;12.30;100.00
24154;BME280;12312;53.362;-1.518;2023-05-01T08:05:09;99217.81;;;12.42;100.00
24154;BME280;12312;53.362;-1.518;2023-05-01T08:07:53;99217.78;;;12.53;100.00
24154;BME280;12312;53.362;-1.518;2023-05-01T08:10:37;99213.69;;;12.27;100.00
24154;BME280;12312;53.362;-1.518;2023-05-01T08:13:21;99230.06;;;12.34;100.00
24154;BME280;12312;53.362;-1.518;2023-05-01T08:16:06;99212.25;;;12.34;100.00
24154;BME280;12312;53.362;-1.518;2023-05-01T08:18:50;99221.94;;;12.35;100.00
24154;BME280;12312;53.362;-1.518;2023-05-01T08:21:34;99225.16;;;12.72;100.00
24154;BME280;12312;53.362;-1.518;2023-05-01T08:24:18;99223.13;;;12.76;100.00
24154;BME280;12312;53.362;-1.518;2023-05-01T08:27:02;99218.56;;;13.09;100.00
24154;BME280;12312;53.362;-1.518;2023-05-01T08:29:45;99213.84;;;12.91;100.00
24154;BME280;12312;53.362;-1.518;2023-05-01T08:32:29;99221.19;;;12.67;100.00
24154;BME280;12312;53.362;-1.518;2023-05-01T08:35:14;99223.38;;;12.73;100.00
24154;BME280;12312;53.362;-1.518;2023-05-01T08:37:58;99233.03;;;12.85;100.00
24154;BME280;12312;53.362;-1.518;2023-05-01T08:40:53;99228.75;;;12.93;100.00
24154;BME280;12312;53.362;-1.518;2023-05-01T08:43:39;99230.59;;;12.93;100.00
24154;BME280;12312;53.362;-1.518;2023-05-01T08:49:16;99234.75;;;13.28;100.00
24154;BME280;12312;53.362;-1.518;2023-05-01T08:52:01;99228.81;;;13.25;100.00
24154;BME280;12312;53.362;-1.518;2023-05-01T08:54:48;99236.00;;;13.24;100.00
24154;BME280;12312;53.362;-1.518;2023-05-01T08:57:34;99232.91;;;13.40;100.00
24154;BME280;12312;53.362;-1.518;2023-05-01T09:00:19;99239.13;;;13.61;100.00
24154;BME280;12312;53.362;-1.518;2023-05-01T09:03:04;99228.41;;;13.09;100.00
24154;BME280;12312;53.362;-1.518;2023-05-01T09:05:50;99245.16;;;13.42;100.00
24154;BME280;12312;53.362;-1.518;2023-05-01T09:08:36;99240.72;;;13.32;100.00
24154;BME280;12312;53.362;-1.518;2023-05-01T09:11:21;99236.69;;;13.58;100.00
24154;BME280;12312;53.362;-1.518;2023-05-01T09:14:05;99245.94;;;13.95;100.00
24154;BME280;12312;53.362;-1.518;2023-05-01T09:16:51;99242.75;;;14.01;100.00
24154;BME280;12312;53.362;-1.518;2023-05-01T09:19:36;99238.47;;;14.19;100.00
24154;BME280;12312;53.362;-1.518;2023-05-01T09:22:21;99247.84;;;14.04;100.00
24154;BME280;12312;53.362;-1.518;2023-05-01T09:25:05;99250.00;;;13.69;100.00
24154;BME280;12312;53.362;-1.518;2023-05-01T09:27:50;99254.53;;;13.37;100.00
24154;BME280;12312;53.362;-1.518;2023-05-01T09:30:36;99261.56;;;13.38;100.00
24154;BME280;12312;53.362;-1.518;2023-05-01T09:33:20;99247.44;;;13.67;100.00
24154;BME280;12312;53.362;-1.518;2023-05-01T09:36:04;99250.13;;;14.29;100.00
24154;BME280;12312;53.362;-1.518;2023-05-01T09:38:49;99250.78;;;14.01;100.00
24154;BME280;12312;53.362;-1.518;2023-05-01T09:41:33;99248.47;;;14.38;100.00
24154;BME280;12312;53.362;-1.518;2023-05-01T09:44:19;99247.50;;;14.18;100.00
24154;BME280;12312;53.362;-1.518;2023-05-01T09:47:02;99242.59;;;14.44;100.00
24154;BME280;12312;53.362;-1.518;2023-05-01T09:49:46;99249.56;;;14.65;100.00
24154;BME280;12312;53.362;-1.518;2023-05-01T09:52:31;99249.78;;;14.92;100.00
24154;BME280;12312;53.362;-1.518;2023-05-01T09:55:17;99251.66;;;15.01;100.00
24154;BME280;12312;53.362;-1.518;2023-05-01T09:58:01;99242.41;;;14.75;100.00
24154;BME280;12312;53.362;-1.518;2023-05-01T10:00:47;99246.53;;;14.79;100.00
24154;BME280;12312;53.362;-1.518;2023-05-01T10:03:33;99249.41;;;14.57;100.00
24154;BME280;12312;53.362;-1.518;2023-05-01T10:06:36;99247.44;;;14.59;100.00
24154;BME280;12312;53.362;-1.518;2023-05-01T10:09:27;99259.34;;;14.76;100.00
24154;BME280;12312;53.362;-1.518;2023-05-01T10:12:22;99263.56;;;14.78;100.00
24154;BME280;12312;53.362;-1.518;2023-05-01T10:15:08;99253.06;;;14.26;100.00
24154;BME280;12312;53.362;-1.518;2023-05-01T10:17:53;99259.56;;;14.63;100.00
24154;BME280;12312;53.362;-1.518;2023-05-01T10:20:38;99253.66;;;14.60;100.00
24154;BME280;12312;53.362;-1.518;2023-05-01T10:23:23;99265.88;;;14.92;100.00
24154;BME280;12312;53.362;-1.518;2023-05-01T10:26:12;99262.63;;;14.98;99.56
24154;BME280;12312;53.362;-1.518;2023-05-01T10:28:59;99256.06;;;15.21;94.47
24154;BME280;12312;53.362;-1.518;2023-05-01T10:31:44;99257.75;;;15.22;95.68
24154;BME280;12312;53.362;-1.518;2023-05-01T10:34:29;99260.50;;;15.41;96.38
24154;BME280;12312;53.362;-1.518;2023-05-01T10:37:21;99256.13;;;15.40;98.94
24154;BME280;12312;53.362;-1.518;2023-05-01T10:43:25;99245.06;;;15.34;90.57
24154;BME280;12312;53.362;-1.518;2023-05-01T10:48:58;99265.72;;;15.71;88.32
24154;BME280;12312;53.362;-1.518;2023-05-01T10:54:41;99276.75;;;15.49;90.94
24154;BME280;12312;53.362;-1.518;2023-05-01T10:57:42;99276.69;;;16.07;89.93
24154;BME280;12312;53.362;-1.518;2023-05-01T11:00:27;99289.91;;;15.22;93.50
24154;BME280;12312;53.362;-1.518;2023-05-01T11:06:04;99293.59;;;15.21;99.01
24154;BME280;12312;53.362;-1.518;2023-05-01T11:08:48;99297.81;;;15.24;98.12
24154;BME280;12312;53.362;-1.518;2023-05-01T11:14:16;99303.94;;;14.86;96.79
24154;BME280;12312;53.362;-1.518;2023-05-01T11:17:01;99289.59;;;14.97;97.82
24154;BME280;12312;53.362;-1.518;2023-05-01T11:19:45;99294.91;;;14.78;96.07
24154;BME280;12312;53.362;-1.518;2023-05-01T11:22:34;99299.88;;;15.01;95.04
24154;BME280;12312;53.362;-1.518;2023-05-01T11:25:22;99293.22;;;14.86;98.12
24154;BME280;12312;53.362;-1.518;2023-05-01T11:28:07;99302.28;;;15.04;97.44
24154;BME280;12312;53.362;-1.518;2023-05-01T11:30:52;99305.69;;;15.06;97.02
24154;BME280;12312;53.362;-1.518;2023-05-01T11:33:36;99308.09;;;15.09;94.41
24154;BME280;12312;53.362;-1.518;2023-05-01T11:36:20;99305.88;;;15.14;93.05
24154;BME280;12312;53.362;-1.518;2023-05-01T11:39:04;99306.38;;;15.38;89.90
24154;BME280;12312;53.362;-1.518;2023-05-01T11:41:49;99303.28;;;15.81;86.44
24154;BME280;12312;53.362;-1.518;2023-05-01T11:44:33;99302.38;;;15.23;85.71
24154;BME280;12312;53.362;-1.518;2023-05-01T11:47:17;99315.13;;;15.40;85.11
24154;BME280;12312;53.362;-1.518;2023-05-01T11:50:01;99304.25;;;14.93;84.63
24154;BME280;12312;53.362;-1.518;2023-05-01T11:52:48;99310.06;;;15.07;86.91
24154;BME280;12312;53.362;-1.518;2023-05-01T11:55:38;99309.69;;;15.21;87.68
24154;BME280;12312;53.362;-1.518;2023-05-01T11:58:30;99312.72;;;15.75;83.27
24154;BME280;12312;53.362;-1.518;2023-05-01T12:01:15;99304.06;;;16.20;82.31
24154;BME280;12312;53.362;-1.518;2023-05-01T12:04:01;99317.13;;;16.05;78.49
24154;BME280;12312;53.362;-1.518;2023-05-01T12:06:46;99322.22;;;15.79;80.94
24154;BME280;12312;53.362;-1.518;2023-05-01T12:09:31;99318.41;;;15.91;78.49
24154;BME280;12312;53.362;-1.518;2023-05-01T12:12:17;99313.31;;;15.69;84.66
24154;BME280;12312;53.362;-1.518;2023-05-01T12:15:03;99318.09;;;14.98;85.32
24154;BME280;12312;53.362;-1.518;2023-05-01T12:17:49;99323.16;;;14.91;87.12
24154;BME280;12312;53.362;-1.518;2023-05-01T12:20:53;99323.47;;;14.98;91.68
24154;BME280;12312;53.362;-1.518;2023-05-01T12:23:37;99333.91;;;14.71;88.51
24154;BME280;12312;53.362;-1.518;2023-05-01T12:26:22;99324.50;;;14.76;91.30
24154;BME280;12312;53.362;-1.518;2023-05-01T12:29:07;99331.88;;;14.84;91.33
24154;BME280;12312;53.362;-1.518;2023-05-01T12:31:53;99330.09;;;15.03;93.12
24154;BME280;12312;53.362;-1.518;2023-05-01T12:34:39;99333.72;;;15.32;93.73
24154;BME280;12312;53.362;-1.518;2023-05-01T12:37:29;99324.91;;;15.11;95.21
24154;BME280;12312;53.362;-1.518;2023-05-01T12:40:14;99331.22;;;15.10;97.01
24154;BME280;12312;53.362;-1.518;2023-05-01T12:42:59;99335.81;;;14.89;96.97
24154;BME280;12312;53.362;-1.518;2023-05-01T12:45:46;99331.22;;;15.40;93.62
24154;BME280;12312;53.362;-1.518;2023-05-01T12:48:37;99334.56;;;16.38;90.19
24154;BME280;12312;53.362;-1.518;2023-05-01T12:51:21;99334.88;;;16.44;89.20
24154;BME280;12312;53.362;-1.518;2023-05-01T12:54:05;99335.91;;;16.80;86.29
24154;BME280;12312;53.362;-1.518;2023-05-01T12:56:50;99339.94;;;16.38;88.18
24154;BME280;12312;53.362;-1.518;2023-05-01T12:59:37;99354.44;;;15.79;92.35
24154;BME280;12312;53.362;-1.518;2023-05-01T13:02:28;99350.53;;;15.04;96.64
24154;BME280;12312;53.362;-1.518;2023-05-01T13:05:12;99345.44;;;14.92;99.20
24154;BME280;12312;53.362;-1.518;2023-05-01T13:07:57;99350.44;;;15.15;99.67
24154;BME280;12312;53.362;-1.518;2023-05-01T13:10:41;99358.63;;;15.72;99.58
24154;BME280;12312;53.362;-1.518;2023-05-01T13:13:27;99342.41;;;15.64;98.47
24154;BME280;12312;53.362;-1.518;2023-05-01T13:16:13;99355.72;;;15.26;98.31
24154;BME280;12312;53.362;-1.518;2023-05-01T13:18:57;99366.44;;;15.36;97.85
24154;BME280;12312;53.362;-1.518;2023-05-01T13:21:46;99365.44;;;16.15;94.26
24154;BME280;12312;53.362;-1.518;2023-05-01T13:24:40;99363.44;;;16.17;93.87
24154;BME280;12312;53.362;-1.518;2023-05-01T13:27:24;99365.16;;;15.98;93.40
24154;BME280;12312;53.362;-1.518;2023-05-01T13:30:09;99374.38;;;15.37;94.12
24154;BME280;12312;53.362;-1.518;2023-05-01T13:32:53;99372.06;;;15.23;96.68
24154;BME280;12312;53.362;-1.518;2023-05-01T13:35:38;99376.59;;;16.00;94.65
24154;BME280;12312;53.362;-1.518;2023-05-01T13:38:23;99373.91;;;16.20;92.63
24154;BME280;12312;53.362;-1.518;2023-05-01T13:41:12;99371.34;;;16.28;90.78
24154;BME280;12312;53.362;-1.518;2023-05-01T13:43:57;99359.47;;;15.54;94.08
24154;BME280;12312;53.362;-1.518;2023-05-01T13:46:41;99362.03;;;15.55;94.67
24154;BME280;12312;53.362;-1.518;2023-05-01T13:49:26;99371.31;;;15.51;93.07
24154;BME280;12312;53.362;-1.518;2023-05-01T13:52:11;99377.59;;;15.99;92.27
24154;BME280;12312;53.362;-1.518;2023-05-01T13:54:58;99373.44;;;15.57;91.79
24154;BME280;12312;53.362;-1.518;2023-05-01T13:57:42;99375.47;;;15.35;90.74
24154;BME280;12312;53.362;-1.518;2023-05-01T14:00:27;99383.75;;;15.22;93.19
24154;BME280;12312;53.362;-1.518;2023-05-01T14:03:11;99389.97;;;15.43;96.29
24154;BME280;12312;53.362;-1.518;2023-05-01T14:05:55;99394.94;;;15.27;95.64
24154;BME280;12312;53.362;-1.518;2023-05-01T14:08:39;99389.69;;;15.46;96.35
24154;BME280;12312;53.362;-1.518;2023-05-01T14:11:24;99384.63;;;15.81;97.61
24154;BME280;12312;53.362;-1.518;2023-05-01T14:14:09;99388.91;;;15.93;97.13
24154;BME280;12312;53.362;-1.518;2023-05-01T14:16:53;99388.53;;;15.49;94.59
24154;BME280;12312;53.362;-1.518;2023-05-01T14:19:38;99381.81;;;15.24;96.59
24154;BME280;12312;53.362;-1.518;2023-05-01T14:22:28;99381.25;;;15.30;96.86
24154;BME280;12312;53.362;-1.518;2023-05-01T14:25:26;99381.19;;;15.41;98.08
24154;BME280;12312;53.362;-1.518;2023-05-01T14:28:11;99382.97;;;15.01;97.99
24154;BME280;12312;53.362;-1.518;2023-05-01T14:30:55;99382.53;;;15.36;100.00
24154;BME280;12312;53.362;-1.518;2023-05-01T14:33:43;99377.44;;;15.63;98.49
24154;BME280;12312;53.362;-1.518;2023-05-01T14:36:28;99380.59;;;15.38;99.51
24154;BME280;12312;53.362;-1.518;2023-05-01T14:39:16;99389.78;;;15.05;100.00
24154;BME280;12312;53.362;-1.518;2023-05-01T14:42:03;99393.75;;;15.11;100.00
24154;BME280;12312;53.362;-1.518;2023-05-01T14:44:46;99387.69;;;15.48;99.39
24154;BME280;12312;53.362;-1.518;2023-05-01T14:47:31;99391.53;;;15.25;99.43
24154;BME280;12312;53.362;-1.518;2023-05-01T14:50:19;99389.72;;;15.65;100.00
24154;BME280;12312;53.362;-1.518;2023-05-01T14:53:04;99384.78;;;15.89;96.48
24154;BME280;12312;53.362;-1.518;2023-05-01T14:55:50;99386.34;;;15.82;95.75
24154;BME280;12312;53.362;-1.518;2023-05-01T14:58:34;99387.75;;;15.67;93.14
24154;BME280;12312;53.362;-1.518;2023-05-01T15:01:18;99384.50;;;15.73;96.90
24154;BME280;12312;53.362;-1.518;2023-05-01T15:04:02;99383.38;;;16.04;96.08